createdAt,value
2022-09-23T00:01:22.299Z,0.00
2022-09-23T00:03:50.511Z,0.00
2022-09-23T00:06:20.541Z,0.00
2022-09-23T00:08:49.821Z,0.00
2022-09-23T00:11:28.497Z,0.00
2022-09-23T00:13:58.478Z,0.00
2022-09-23T00:16:30.091Z,0.00
2022-09-23T00:18:58.449Z,0.00
2022-09-23T00:21:26.194Z,0.00
2022-09-23T00:23:53.943Z,0.00
2022-09-23T00:26:23.139Z,0.00
2022-09-23T00:28:51.270Z,0.00
2022-09-23T00:31:21.802Z,0.00
2022-09-23T00:33:55.277Z,0.00
2022-09-23T00:36:23.901Z,0.00
2022-09-23T00:38:51.813Z,0.00
2022-09-23T00:41:20.001Z,0.00
2022-09-23T00:43:47.734Z,0.00
2022-09-23T00:46:19.649Z,0.00
2022-09-23T00:48:48.912Z,0.00
2022-09-23T00:51:20.985Z,0.00
2022-09-23T00:53:50.461Z,0.00
2022-09-23T00:56:20.316Z,0.00
2022-09-23T00:58:49.973Z,0.00
2022-09-23T01:03:47.416Z,0.00
2022-09-23T01:06:15.529Z,0.00
2022-09-23T01:08:44.838Z,0.00
2022-09-23T01:11:24.490Z,0.00
2022-09-23T01:13:56.191Z,0.00
2022-09-23T01:16:52.505Z,0.00
2022-09-23T01:19:43.127Z,0.00
2022-09-23T01:22:10.868Z,0.00
2022-09-23T01:24:47.629Z,0.00
2022-09-23T01:27:30.547Z,0.00
2022-09-23T01:30:20.083Z,0.00
2022-09-23T01:33:11.239Z,0.00
2022-09-23T01:35:47.752Z,0.00
2022-09-23T01:38:36.943Z,0.00
2022-09-23T01:41:16.275Z,0.00
2022-09-23T01:43:54.601Z,0.00
2022-09-23T01:46:51.969Z,0.00
2022-09-23T01:49:25.615Z,0.00
2022-09-23T01:51:58.705Z,0.00
2022-09-23T01:54:34.363Z,0.00
2022-09-23T01:57:13.080Z,0.00
2022-09-23T01:59:45.548Z,0.00
2022-09-23T02:02:22.014Z,0.00
2022-09-23T02:05:16.220Z,0.00
2022-09-23T02:07:52.226Z,0.00
2022-09-23T02:10:24.463Z,0.00
2022-09-23T02:12:57.258Z,0.00
2022-09-23T02:15:34.007Z,0.00
2022-09-23T02:18:15.370Z,0.00
2022-09-23T02:20:43.559Z,0.00
2022-09-23T02:23:22.514Z,0.00
2022-09-23T02:26:08.545Z,0.00
2022-09-23T02:28:55.171Z,0.00
2022-09-23T02:32:01.608Z,0.00
2022-09-23T02:34:38.158Z,0.00
2022-09-23T02:37:21.419Z,0.00
2022-09-23T02:39:51.756Z,0.00
2022-09-23T02:42:23.539Z,0.00
2022-09-23T02:44:51.525Z,0.00
2022-09-23T02:47:24.187Z,0.00
2022-09-23T02:49:53.314Z,0.00
2022-09-23T02:52:21.236Z,0.00
2022-09-23T02:54:49.185Z,0.00
2022-09-23T02:57:17.453Z,0.00
2022-09-23T02:59:46.799Z,0.00
2022-09-23T03:02:21.617Z,0.00
2022-09-23T03:05:23.834Z,0.00
2022-09-23T03:07:59.565Z,0.00
2022-09-23T03:10:37.816Z,0.00
2022-09-23T03:13:47.003Z,0.00
2022-09-23T03:16:39.341Z,0.00
2022-09-23T03:19:27.569Z,0.00
2022-09-23T03:22:11.904Z,0.00
2022-09-23T03:24:40.260Z,0.00
2022-09-23T03:27:13.777Z,0.00
2022-09-23T03:29:45.658Z,0.00
2022-09-23T03:32:15.172Z,0.00
2022-09-23T03:34:44.666Z,0.00
2022-09-23T03:37:36.123Z,0.00
2022-09-23T03:40:12.304Z,0.00
2022-09-23T03:42:40.422Z,0.00
2022-09-23T03:45:13.045Z,0.00
2022-09-23T03:47:42.307Z,0.00
2022-09-23T03:50:10.733Z,0.00
2022-09-23T03:52:39.773Z,0.00
2022-09-23T03:55:08.241Z,0.00
2022-09-23T03:57:37.042Z,0.00
2022-09-23T04:00:06.847Z,0.00
2022-09-23T04:02:39.577Z,0.00
2022-09-23T04:05:08.255Z,0.00
2022-09-23T04:07:36.187Z,0.00
2022-09-23T04:10:05.255Z,0.00
2022-09-23T04:12:33.313Z,0.00
2022-09-23T04:15:01.196Z,0.00
2022-09-23T04:17:29.002Z,0.00
2022-09-23T04:19:56.698Z,0.00
2022-09-23T04:22:24.593Z,0.00
2022-09-23T04:24:52.288Z,0.00
2022-09-23T04:27:20.362Z,0.00
2022-09-23T04:29:48.183Z,0.00
2022-09-23T04:32:15.884Z,0.00
2022-09-23T04:34:43.574Z,0.00
2022-09-23T04:37:11.376Z,0.00
2022-09-23T04:39:39.917Z,0.00
2022-09-23T04:42:08.080Z,0.00
2022-09-23T04:44:36.688Z,0.00
2022-09-23T04:47:04.883Z,0.00
2022-09-23T04:49:33.672Z,0.00
2022-09-23T04:54:30.695Z,0.00
2022-09-23T04:56:58.946Z,0.00
2022-09-23T04:59:26.761Z,0.00
2022-09-23T05:01:55.462Z,0.00
2022-09-23T05:04:23.404Z,0.00
2022-09-23T05:06:51.252Z,0.00
2022-09-23T05:09:19.301Z,0.00
2022-09-23T05:11:47.213Z,0.00
2022-09-23T05:14:15.056Z,0.00
2022-09-23T05:16:43.028Z,0.00
2022-09-23T05:19:13.430Z,0.00
2022-09-23T05:21:41.344Z,0.00
2022-09-23T05:24:09.933Z,0.00
2022-09-23T05:26:38.419Z,0.00
2022-09-23T05:29:06.338Z,0.00
2022-09-23T05:31:35.067Z,0.00
2022-09-23T05:34:05.032Z,0.00
2022-09-23T05:36:38.393Z,0.00
2022-09-23T05:39:07.777Z,0.00
2022-09-23T05:41:36.420Z,0.00
2022-09-23T05:44:04.479Z,0.20
2022-09-23T05:46:33.270Z,0.00
2022-09-23T05:49:03.450Z,0.00
2022-09-23T05:51:33.765Z,0.00
2022-09-23T05:54:04.138Z,0.00
2022-09-23T05:56:33.472Z,0.00
2022-09-23T05:59:02.702Z,0.00
2022-09-23T06:01:33.719Z,0.00
2022-09-23T06:04:04.031Z,0.00
2022-09-23T06:06:40.145Z,0.00
2022-09-23T06:09:13.913Z,0.00
2022-09-23T06:11:43.045Z,0.00
2022-09-23T06:14:12.871Z,0.00
2022-09-23T06:16:41.015Z,0.00
2022-09-23T06:19:09.977Z,0.00
2022-09-23T06:21:39.438Z,0.00
2022-09-23T06:24:08.164Z,0.00
2022-09-23T06:26:37.881Z,0.00
2022-09-23T06:31:43.337Z,0.00
2022-09-23T06:34:13.681Z,0.00
2022-09-23T06:36:46.335Z,0.00
2022-09-23T06:39:15.512Z,0.00
2022-09-23T06:41:46.427Z,0.00
2022-09-23T06:44:16.675Z,0.00
2022-09-23T06:46:44.549Z,0.00
2022-09-23T06:49:13.839Z,0.00
2022-09-23T06:51:41.980Z,0.00
2022-09-23T06:54:11.181Z,0.00
2022-09-23T06:56:40.002Z,0.00
2022-09-23T06:59:10.827Z,0.00
2022-09-23T07:01:39.961Z,0.00
2022-09-23T07:06:37.281Z,0.00
2022-09-23T07:09:08.042Z,0.00
2022-09-23T07:11:35.921Z,0.00
2022-09-23T07:14:03.811Z,0.00
2022-09-23T07:16:33.053Z,0.00
2022-09-23T07:19:00.844Z,0.00
2022-09-23T07:21:28.927Z,0.00
2022-09-23T07:23:58.277Z,0.00
2022-09-23T07:28:57.836Z,0.00
2022-09-23T07:31:37.211Z,0.00
2022-09-23T07:34:08.635Z,0.00
2022-09-23T07:36:40.851Z,0.00
2022-09-23T07:39:11.340Z,0.00
2022-09-23T07:41:39.505Z,0.00
2022-09-23T07:44:08.894Z,0.00
2022-09-23T07:46:37.285Z,0.00
2022-09-23T07:49:06.242Z,0.00
2022-09-23T07:51:37.007Z,0.00
2022-09-23T07:54:09.939Z,0.00
2022-09-23T07:56:38.629Z,0.00
2022-09-23T07:59:08.989Z,0.00
2022-09-23T08:01:41.225Z,0.00
2022-09-23T08:04:13.801Z,0.00
2022-09-23T08:06:46.443Z,0.00
2022-09-23T08:09:16.328Z,0.00
2022-09-23T08:11:45.260Z,0.00
2022-09-23T08:14:15.221Z,0.00
2022-09-23T08:16:44.831Z,0.00
2022-09-23T08:19:13.201Z,0.00
2022-09-23T08:21:41.827Z,0.00
2022-09-23T08:24:14.312Z,0.00
2022-09-23T08:26:43.083Z,0.00
2022-09-23T08:29:15.636Z,0.00
2022-09-23T08:31:44.045Z,0.00
2022-09-23T08:34:11.942Z,0.10
2022-09-23T08:36:39.636Z,0.20
2022-09-23T08:39:12.584Z,0.30
2022-09-23T08:41:59.455Z,0.30
2022-09-23T08:44:34.818Z,0.50
2022-09-23T08:47:10.547Z,0.60
2022-09-23T08:50:01.479Z,0.80
2022-09-23T08:52:36.436Z,1.00
2022-09-23T08:55:04.589Z,1.20
2022-09-23T08:57:36.667Z,1.50
2022-09-23T09:00:05.115Z,1.80
2022-09-23T09:02:34.754Z,2.00
2022-09-23T09:05:06.538Z,1.60
2022-09-23T09:07:37.838Z,1.90
2022-09-23T09:10:39.206Z,1.40
2022-09-23T09:13:17.024Z,1.00
2022-09-23T09:15:58.660Z,1.20
2022-09-23T09:18:30.991Z,1.10
2022-09-23T09:21:14.490Z,0.90
2022-09-23T09:23:55.046Z,1.00
2022-09-23T09:26:25.964Z,1.00
2022-09-23T09:29:17.240Z,0.70
2022-09-23T09:31:51.020Z,0.50
2022-09-23T09:34:31.002Z,0.90
2022-09-23T09:37:07.167Z,0.90
2022-09-23T09:39:36.435Z,1.00
2022-09-23T09:42:06.799Z,1.10
2022-09-23T09:44:37.095Z,1.20
2022-09-23T09:47:28.774Z,1.30
2022-09-23T09:50:11.895Z,1.50
2022-09-23T09:52:42.402Z,1.80
2022-09-23T09:55:13.324Z,2.10
2022-09-23T09:57:48.405Z,2.20
2022-09-23T10:00:35.779Z,2.10
2022-09-23T10:03:05.063Z,2.40
2022-09-23T10:05:34.361Z,1.60
2022-09-23T10:08:35.234Z,1.30
2022-09-23T10:11:08.209Z,1.50
2022-09-23T10:13:36.782Z,1.10
2022-09-23T10:16:05.050Z,0.90
2022-09-23T10:18:49.549Z,0.70
2022-09-23T10:21:25.477Z,0.50
2022-09-23T10:26:32.470Z,0.40
2022-09-23T10:29:24.736Z,0.30
2022-09-23T10:32:17.332Z,0.20
2022-09-23T10:34:47.999Z,0.10
2022-09-23T10:37:27.760Z,0.20
2022-09-23T10:40:14.245Z,0.20
2022-09-23T10:43:13.189Z,0.10
2022-09-23T10:46:06.836Z,0.10
2022-09-23T10:48:37.839Z,0.10
2022-09-23T10:51:26.396Z,0.10
2022-09-23T10:54:13.365Z,0.00
2022-09-23T10:57:40.730Z,0.00
2022-09-23T11:00:30.412Z,0.00
2022-09-23T11:03:19.585Z,0.00
2022-09-23T11:06:11.287Z,0.00
2022-09-23T11:09:11.294Z,0.00
2022-09-23T11:12:01.279Z,0.00
2022-09-23T11:14:47.154Z,0.00
2022-09-23T11:17:27.200Z,0.00
2022-09-23T11:19:58.043Z,0.00
2022-09-23T11:22:36.088Z,0.00
2022-09-23T11:25:16.830Z,0.00
2022-09-23T11:27:58.737Z,0.00
2022-09-23T11:30:37.308Z,0.00
2022-09-23T11:35:51.300Z,0.00
2022-09-23T11:38:29.525Z,0.00
2022-09-23T11:41:15.747Z,0.00
2022-09-23T11:43:44.589Z,0.00
2022-09-23T11:49:22.749Z,0.00
2022-09-23T11:51:50.508Z,0.00
2022-09-23T11:54:24.520Z,0.00
2022-09-23T11:56:54.549Z,0.00
2022-09-23T11:59:38.250Z,0.00
2022-09-23T12:02:30.603Z,0.00
2022-09-23T12:05:14.127Z,0.00
2022-09-23T12:08:09.795Z,0.00
2022-09-23T12:10:41.840Z,0.00
2022-09-23T12:13:19.178Z,0.00
2022-09-23T12:16:26.303Z,0.00
2022-09-23T12:19:32.489Z,0.00
2022-09-23T12:22:36.629Z,0.00
2022-09-23T12:25:46.669Z,0.00
2022-09-23T12:28:20.735Z,0.00
2022-09-23T12:30:49.871Z,0.00
2022-09-23T12:33:27.386Z,0.00
2022-09-23T12:36:09.708Z,0.00
2022-09-23T12:38:57.728Z,0.00
2022-09-23T12:41:37.459Z,0.00
2022-09-23T12:44:12.033Z,0.00
2022-09-23T12:46:46.859Z,0.00
2022-09-23T12:49:30.009Z,0.00
2022-09-23T12:52:13.507Z,0.00
2022-09-23T12:54:42.948Z,0.00
2022-09-23T12:57:12.916Z,0.00
2022-09-23T12:59:58.531Z,0.00
2022-09-23T13:02:29.897Z,0.00
2022-09-23T13:05:22.863Z,0.00
2022-09-23T13:07:51.532Z,0.00
2022-09-23T13:10:25.076Z,0.00
2022-09-23T13:12:53.401Z,0.00
2022-09-23T13:15:26.319Z,0.00
2022-09-23T13:18:22.783Z,0.00
2022-09-23T13:20:52.083Z,0.00
2022-09-23T13:23:24.253Z,0.00
2022-09-23T13:25:58.029Z,0.00
2022-09-23T13:28:42.318Z,0.00
2022-09-23T13:31:15.153Z,0.00
2022-09-23T13:33:46.306Z,0.00
2022-09-23T13:36:17.130Z,0.00
2022-09-23T13:38:49.188Z,0.00
2022-09-23T13:41:20.751Z,0.00
2022-09-23T13:43:58.819Z,0.00
2022-09-23T13:46:30.124Z,0.00
2022-09-23T13:48:58.089Z,0.00
2022-09-23T13:51:33.354Z,0.00
2022-09-23T13:54:03.123Z,0.00
2022-09-23T13:56:33.116Z,0.10
2022-09-23T13:59:24.935Z,0.00
2022-09-23T14:02:12.333Z,0.00
2022-09-23T14:04:40.587Z,0.00
2022-09-23T14:07:10.218Z,0.00
2022-09-23T14:09:42.279Z,0.00
2022-09-23T14:12:10.735Z,0.00
2022-09-23T14:14:40.510Z,0.00
2022-09-23T14:17:08.970Z,0.00
2022-09-23T14:19:37.315Z,0.00
2022-09-23T14:22:09.195Z,0.00
2022-09-23T14:24:39.649Z,0.00
2022-09-23T14:27:08.019Z,0.00
2022-09-23T14:29:38.866Z,0.00
2022-09-23T14:32:21.042Z,0.00
2022-09-23T14:34:49.949Z,0.00
2022-09-23T14:37:54.632Z,0.00
2022-09-23T14:40:29.537Z,0.00
2022-09-23T14:43:28.955Z,0.00
2022-09-23T14:45:57.954Z,0.00
2022-09-23T14:48:31.061Z,1.00
2022-09-23T14:51:04.459Z,0.00
2022-09-23T14:53:34.705Z,0.00
2022-09-23T14:56:22.327Z,0.00
2022-09-23T14:59:00.704Z,0.00
2022-09-23T15:01:34.908Z,0.00
2022-09-23T15:04:13.156Z,0.00
2022-09-23T15:06:46.865Z,0.00
2022-09-23T15:09:23.997Z,0.00
2022-09-23T15:11:53.699Z,0.00
2022-09-23T15:14:37.090Z,0.00
2022-09-23T15:17:15.228Z,0.00
2022-09-23T15:19:43.065Z,0.00
2022-09-23T15:22:11.215Z,0.00
2022-09-23T15:24:45.991Z,0.00
2022-09-23T15:27:26.395Z,0.00
2022-09-23T15:29:54.472Z,0.00
2022-09-23T15:32:22.505Z,0.00
2022-09-23T15:34:51.315Z,0.00
2022-09-23T15:37:19.159Z,0.00
2022-09-23T15:39:48.353Z,0.00
2022-09-23T15:42:18.338Z,0.00
2022-09-23T15:44:46.260Z,0.00
2022-09-23T15:47:18.945Z,0.00
2022-09-23T15:49:47.328Z,0.00
2022-09-23T15:52:16.069Z,0.00
2022-09-23T15:54:44.755Z,0.00
2022-09-23T15:57:12.955Z,0.00
2022-09-23T15:59:41.672Z,0.00
2022-09-23T16:02:16.711Z,0.10
2022-09-23T16:04:47.322Z,0.10
2022-09-23T16:07:17.126Z,0.00
2022-09-23T16:09:44.961Z,0.00
2022-09-23T16:12:13.211Z,0.00
2022-09-23T16:14:41.016Z,0.00
2022-09-23T16:17:13.167Z,0.00
2022-09-23T16:19:41.056Z,0.00
2022-09-23T16:22:10.495Z,0.00
2022-09-23T16:27:07.812Z,0.00
2022-09-23T16:29:35.892Z,0.00
2022-09-23T16:32:04.296Z,0.00
2022-09-23T16:34:34.870Z,0.00
2022-09-23T16:37:04.743Z,0.00
2022-09-23T16:39:32.789Z,0.10
2022-09-23T16:42:00.763Z,0.00
2022-09-23T16:44:28.633Z,0.00
2022-09-23T16:46:57.799Z,0.00
2022-09-23T16:49:27.436Z,0.00
2022-09-23T16:51:55.287Z,0.00
2022-09-23T16:54:23.896Z,0.10
2022-09-23T16:56:52.239Z,0.00
2022-09-23T16:59:20.178Z,0.00
2022-09-23T17:02:06.792Z,0.10
2022-09-23T17:04:34.684Z,0.10
2022-09-23T17:07:02.748Z,0.10
2022-09-23T17:09:31.897Z,0.30
2022-09-23T17:12:34.705Z,0.10
2022-09-23T17:15:07.444Z,0.10
2022-09-23T17:17:39.381Z,0.00
2022-09-23T17:20:07.606Z,0.10
2022-09-23T17:22:35.459Z,0.00
2022-09-23T17:25:03.923Z,0.00
2022-09-23T17:27:32.073Z,0.10
2022-09-23T17:29:59.808Z,0.00
2022-09-23T17:32:27.912Z,0.20
2022-09-23T17:34:55.695Z,0.10
2022-09-23T17:37:23.572Z,0.10
2022-09-23T17:39:51.746Z,0.10
2022-09-23T17:44:01.683Z,0.00
2022-09-23T17:46:31.027Z,0.20
2022-09-23T17:48:58.813Z,0.00
2022-09-23T17:51:27.820Z,0.10
2022-09-23T17:53:55.790Z,0.00
2022-09-23T17:56:25.646Z,0.10
2022-09-23T17:58:54.148Z,0.00
2022-09-23T18:01:24.943Z,0.00
2022-09-23T18:03:57.620Z,0.00
2022-09-23T18:06:28.885Z,0.00
2022-09-23T18:08:58.309Z,0.00
2022-09-23T18:14:01.190Z,0.00
2022-09-23T18:16:31.527Z,0.00
2022-09-23T18:19:00.952Z,0.00
2022-09-23T18:21:31.784Z,0.00
2022-09-23T18:26:52.905Z,0.00
2022-09-23T18:29:20.716Z,0.00
2022-09-23T18:31:49.403Z,0.00
2022-09-23T18:34:17.470Z,0.00
2022-09-23T18:36:45.774Z,0.00
2022-09-23T18:41:43.384Z,0.00
2022-09-23T18:44:11.351Z,0.00
2022-09-23T18:46:39.677Z,0.00
2022-09-23T18:49:26.334Z,0.00
2022-09-23T18:51:56.641Z,0.00
2022-09-23T18:54:28.124Z,0.00
2022-09-23T18:56:56.663Z,0.00
2022-09-23T18:59:28.031Z,0.00
2022-09-23T19:01:57.922Z,0.00
2022-09-23T19:04:27.361Z,0.00
2022-09-23T19:06:56.771Z,0.00
2022-09-23T19:09:25.453Z,0.00
2022-09-23T19:11:53.778Z,0.00
2022-09-23T19:14:21.619Z,0.00
2022-09-23T19:16:50.627Z,0.00
2022-09-23T19:19:18.599Z,0.00
2022-09-23T19:21:46.650Z,0.00
2022-09-23T19:24:19.921Z,0.00
2022-09-23T19:26:48.864Z,0.00
2022-09-23T19:29:19.604Z,0.00
2022-09-23T19:31:48.776Z,0.00
2022-09-23T19:34:19.985Z,0.00
2022-09-23T19:36:48.606Z,0.00
2022-09-23T19:39:17.501Z,0.00
2022-09-23T19:41:46.815Z,0.00
2022-09-23T19:44:15.269Z,0.00
2022-09-23T19:46:45.547Z,0.00
2022-09-23T19:49:13.795Z,0.00
2022-09-23T19:51:44.041Z,0.00
2022-09-23T19:54:14.526Z,0.00
2022-09-23T19:56:43.307Z,0.00
2022-09-23T19:59:14.168Z,0.00
2022-09-23T20:01:46.861Z,0.00
2022-09-23T20:04:15.865Z,0.00
2022-09-23T20:06:45.839Z,0.00
2022-09-23T20:09:14.110Z,0.00
2022-09-23T20:11:44.352Z,0.00
2022-09-23T20:14:13.013Z,0.00
2022-09-23T20:16:41.147Z,0.00
2022-09-23T20:19:09.837Z,0.00
2022-09-23T20:21:37.667Z,0.00
2022-09-23T20:24:07.569Z,0.00
2022-09-23T20:26:54.201Z,0.00
2022-09-23T20:29:23.789Z,0.00
2022-09-23T20:31:51.705Z,0.00
2022-09-23T20:34:20.442Z,0.00
2022-09-23T20:36:48.575Z,0.00
2022-09-23T20:39:16.336Z,0.00
2022-09-23T20:41:44.677Z,0.00
2022-09-23T20:44:13.076Z,0.00
2022-09-23T20:46:47.806Z,0.00
2022-09-23T20:49:17.598Z,0.00
2022-09-23T20:51:47.919Z,0.00
2022-09-23T20:54:19.213Z,0.00
2022-09-23T20:56:48.730Z,0.00
2022-09-23T20:59:18.936Z,0.00
2022-09-23T21:01:47.873Z,0.00
2022-09-23T21:04:16.023Z,0.00
2022-09-23T21:06:43.734Z,0.00
2022-09-23T21:09:11.751Z,0.00
2022-09-23T21:11:40.665Z,0.00
2022-09-23T21:14:08.705Z,0.00
2022-09-23T21:16:37.067Z,0.00
2022-09-23T21:19:08.250Z,0.00
2022-09-23T21:21:36.373Z,0.00
2022-09-23T21:24:33.035Z,0.00
2022-09-23T21:26:52.371Z,0.00
2022-09-23T21:29:20.144Z,0.00
2022-09-23T21:31:49.664Z,0.00
2022-09-23T21:34:18.340Z,0.00
2022-09-23T21:36:48.148Z,0.00
2022-09-23T21:39:16.040Z,0.00
2022-09-23T21:41:43.813Z,0.00
2022-09-23T21:44:11.991Z,0.00
2022-09-23T21:46:39.836Z,0.00
2022-09-23T21:49:09.093Z,0.00
2022-09-23T21:51:41.010Z,0.00
2022-09-23T21:54:14.194Z,0.00
2022-09-23T21:56:43.165Z,0.00
2022-09-23T21:59:11.437Z,0.00
2022-09-23T22:01:44.520Z,0.00
2022-09-23T22:04:20.710Z,0.00
2022-09-23T22:06:49.253Z,0.00
2022-09-23T22:09:19.163Z,0.00
2022-09-23T22:12:07.758Z,0.00
2022-09-23T22:14:38.989Z,0.00
2022-09-23T22:17:10.372Z,0.00
2022-09-23T22:19:45.793Z,0.00
2022-09-23T22:22:16.494Z,0.00
2022-09-23T22:24:46.637Z,0.00
2022-09-23T22:27:18.262Z,0.00
2022-09-23T22:30:04.654Z,0.00
2022-09-23T22:32:43.472Z,0.00
2022-09-23T22:35:13.888Z,0.00
2022-09-23T22:37:41.766Z,0.00
2022-09-23T22:40:14.549Z,0.00
2022-09-23T22:42:42.885Z,0.00
2022-09-23T22:47:45.511Z,0.00
2022-09-23T22:50:14.754Z,0.00
2022-09-23T22:52:43.106Z,0.00
2022-09-23T22:55:11.875Z,0.00
2022-09-23T22:57:39.612Z,0.00
2022-09-23T23:00:08.503Z,0.00
2022-09-23T23:02:36.843Z,0.00
2022-09-23T23:05:05.011Z,0.00
2022-09-23T23:07:36.147Z,0.00
2022-09-23T23:10:04.746Z,0.00
2022-09-23T23:12:33.562Z,0.00
2022-09-23T23:15:01.266Z,0.00
2022-09-23T23:17:29.839Z,0.00
2022-09-23T23:19:58.087Z,0.00
2022-09-23T23:22:28.417Z,0.00
2022-09-23T23:24:56.674Z,0.00
2022-09-23T23:27:24.491Z,0.00
2022-09-23T23:29:52.434Z,0.00
2022-09-23T23:32:20.139Z,0.00
2022-09-23T23:34:47.856Z,0.00
2022-09-23T23:37:20.074Z,0.00
2022-09-23T23:39:48.951Z,0.00
2022-09-23T23:42:17.252Z,0.00
2022-09-23T23:44:45.390Z,0.00
2022-09-23T23:47:13.322Z,0.00
2022-09-23T23:49:41.182Z,0.00
2022-09-23T23:52:08.985Z,0.00
2022-09-23T23:54:36.694Z,0.00
2022-09-23T23:57:04.497Z,0.00
2022-09-23T23:59:34.399Z,0.00
